ASN logo
ASN Wikibase Occurrence # 269906
Last updated: 25 January 2022
This information is added by users of ASN. Neither ASN nor the Flight Safety Foundation are responsible for the completeness or correctness of this information. If you feel this information is incomplete or incorrect, you can submit corrected information.

Date:22-NOV-2021
Time:08:43 LT
Type:Silhouette image of generic F100 model; specific model in this crash may look slightly different
Fokker 100
Owner/operator:QantasLink, opby Network Aviation
Registration: VH-NHV
MSN: 11482
Fatalities:Fatalities: 0 / Occupants:
Other fatalities:0
Aircraft damage: None
Category:Serious incident
Location:Paraburdoo Airport, WA -   Australia
Phase: Approach
Nature:Passenger
Departure airport:Perth Airport, WA (PER/YPPH)
Destination airport:Paraburdoo Airport, WA (PBO/YPBO)
Investigating agency: ATSB
Narrative:
QantasLink flight QF1616, a Fokker 100 operated by Network Aviation, descended below minimum altitude at Paraburdoo Airport, Western Australia.
During a fourth attempt at an instrument approach at Paraburdoo Airport, the flight crew continued the descent below the approach minima before becoming visual and landing.

Weather reported at Paraburdoo Airport about the incident time (0043Z):
YPBO 220000Z AUTO 33004KT 290V350 3000 -SHRA BKN008 OVC010 21/20 Q1013
YPBO 220100Z AUTO 24007KT 9999 -SHRA BKN004 OVC009 OVC017 21/20 Q1013

Sources:

http://www.atsb.gov.au/publications/investigation_reports/2021/aair/ao-2021-048/
https://www.flightradar24.com/data/aircraft/vh-nhv#29f0cae6


Images:

Photo of VH-NHV courtesy AirHistory.net


Perth (YPPH / PER)
23 June 2018; (c) Kurt Finger

Revision history:

Date/timeContributorUpdates
25-Nov-2021 18:28 harro Added
25-Nov-2021 18:31 harro Updated [Nature, Narrative]

Corrections or additions? ... Edit this accident description